McLeansville, NC (27301)

2:38 AM EST on November 23, 2014 (GMT -0500)
Osceola/NE Guilford | Change Station
CLOSE
Current Station
Personal Weather Station
Location: Browns Summit, NC
Elevation: 721 ft
Nearby Weather Stations

Elev 721 ft 36.20 °N, 79.61 °W | Updated 4 seconds ago

Overcast
Overcast
35.8 °F
Feels Like 36 °F
N
0.0
Wind Variable Wind from SSW
Gusts 0.0 mph

Today
High -- | Low -- °F
--% Chance of Precip.
Yesterday
High -- | Low -- °F
Precip. -- in
7:03 AM 5:06 PM
New Moon, 1% visible
Pressure 30.29 in
Visibility 10.0 miles
Clouds Overcast 4900 ft
Windchill 36 °F
Dew Point 31 °F
Humidity 81%
Rainfall 0.00 in
Snow Depth Not available.
UV 0 out of 12
Pollen .30 out of 12
Air Quality Not available.
Flu Activity Not available.
METAR KBUY 230654Z AUTO 00000KT 10SM OVC049 01/M04 A3028 RMK AO2 SLP256 T00111044

More Conditions Fewer Conditions

Pressure 30.29 in
Visibility 10.0 miles
Clouds Overcast 4900 ft
Windchill 36 °F
Dew Point 31 °F
Humidity 81%
Rainfall 0.00 in
Snow Depth Not available.
UV 0 out of 12
Pollen .30 out of 12
Air Quality Not available.
Flu Activity Not available.
METAR KBUY 230654Z AUTO 00000KT 10SM OVC049 01/M04 A3028 RMK AO2 SLP256 T00111044

More Conditions Fewer Conditions

10-Day Weather Forecast

Almanac

Astronomy

Nov. 23, 2014 Rise Set
Actual Time
Civil Twilight
Nautical Twilight
Astronomical Twilight
Moon
Length of Visible Light
Length of Day
Tomorrow will be .
, % of the Moon is Illuminated

Today's Extremes

State Highs State Lows

Community

WunderPhotos

Upload Photos

1,773,024 photos uploaded!

WunderBlogs® & News

Nearby

Air Quality

  Air Quality AQ Index Pollutant
Not available.

Snow Depth

Station Depth Elevation

Earthquake Activity

City Distance Mag. Time & Date
Minimum magnitude displayed is 2.5.

Coastal Water Temperatures

Place Temperature

Nearby Weather Stations